sensor_id;sensor_type;location;lat;lon;timestamp;pressure;altitude;pressure_sealevel;temperature;humidity
38780;BME280;29273;49.962;9.768;2022-11-20T00:01:19;99360.69;;;6.23;56.65
38780;BME280;29273;49.962;9.768;2022-11-20T00:03:45;99364.50;;;6.21;56.46
38780;BME280;29273;49.962;9.768;2022-11-20T00:06:14;99357.06;;;6.24;56.70
38780;BME280;29273;49.962;9.768;2022-11-20T00:08:40;99361.88;;;6.21;56.88
38780;BME280;29273;49.962;9.768;2022-11-20T00:11:17;99373.50;;;6.26;56.59
38780;BME280;29273;49.962;9.768;2022-11-20T00:13:43;99374.84;;;6.22;56.41
38780;BME280;29273;49.962;9.768;2022-11-20T00:16:11;99379.91;;;6.24;56.35
38780;BME280;29273;49.962;9.768;2022-11-20T00:18:37;99377.66;;;6.21;56.36
38780;BME280;29273;49.962;9.768;2022-11-20T00:21:04;99379.47;;;6.20;56.37
38780;BME280;29273;49.962;9.768;2022-11-20T00:23:30;99388.53;;;6.18;56.12
38780;BME280;29273;49.962;9.768;2022-11-20T00:25:56;99381.66;;;6.17;56.15
38780;BME280;29273;49.962;9.768;2022-11-20T00:28:22;99368.69;;;6.15;56.41
38780;BME280;29273;49.962;9.768;2022-11-20T00:30:47;99351.44;;;6.13;56.40
38780;BME280;29273;49.962;9.768;2022-11-20T00:33:13;99356.91;;;6.11;56.59
38780;BME280;29273;49.962;9.768;2022-11-20T00:35:38;99360.53;;;6.10;56.51
38780;BME280;29273;49.962;9.768;2022-11-20T00:38:04;99363.97;;;6.10;56.43
38780;BME280;29273;49.962;9.768;2022-11-20T00:40:29;99367.41;;;6.11;56.51
38780;BME280;29273;49.962;9.768;2022-11-20T00:42:55;99362.34;;;6.09;56.64
38780;BME280;29273;49.962;9.768;2022-11-20T00:45:21;99361.53;;;6.09;56.58
38780;BME280;29273;49.962;9.768;2022-11-20T00:47:46;99360.72;;;6.08;56.63
38780;BME280;29273;49.962;9.768;2022-11-20T00:50:12;99359.91;;;6.08;56.65
38780;BME280;29273;49.962;9.768;2022-11-20T00:52:37;99364.34;;;6.07;56.70
38780;BME280;29273;49.962;9.768;2022-11-20T00:55:04;99358.28;;;6.07;56.37
38780;BME280;29273;49.962;9.768;2022-11-20T00:57:29;99368.97;;;6.05;56.32
38780;BME280;29273;49.962;9.768;2022-11-20T00:59:55;99366.53;;;6.04;56.53
38780;BME280;29273;49.962;9.768;2022-11-20T01:02:20;99374.59;;;6.02;56.61
38780;BME280;29273;49.962;9.768;2022-11-20T01:04:46;99374.59;;;6.02;56.62
38780;BME280;29273;49.962;9.768;2022-11-20T01:07:11;99373.78;;;6.02;56.67
38780;BME280;29273;49.962;9.768;2022-11-20T01:09:37;99370.34;;;6.01;56.47
38780;BME280;29273;49.962;9.768;2022-11-20T01:12:02;99349.31;;;6.01;56.59
38780;BME280;29273;49.962;9.768;2022-11-20T01:14:28;99339.78;;;6.00;56.32
38780;BME280;29273;49.962;9.768;2022-11-20T01:16:53;99346.88;;;6.00;56.60
38780;BME280;29273;49.962;9.768;2022-11-20T01:19:21;99356.19;;;6.02;56.64
38780;BME280;29273;49.962;9.768;2022-11-20T01:21:50;99353.38;;;6.04;56.75
38780;BME280;29273;49.962;9.768;2022-11-20T01:24:18;99344.06;;;6.01;56.70
38780;BME280;29273;49.962;9.768;2022-11-20T01:26:45;99356.38;;;6.01;56.75
38780;BME280;29273;49.962;9.768;2022-11-20T01:29:30;99363.44;;;6.00;56.70
38780;BME280;29273;49.962;9.768;2022-11-20T01:31:55;99361.97;;;5.98;56.45
38780;BME280;29273;49.962;9.768;2022-11-20T01:34:21;99369.69;;;5.99;56.50
38780;BME280;29273;49.962;9.768;2022-11-20T01:36:47;99370.34;;;6.01;56.93
38780;BME280;29273;49.962;9.768;2022-11-20T01:39:21;99370.97;;;6.03;56.85
38780;BME280;29273;49.962;9.768;2022-11-20T01:41:48;99373.41;;;6.05;56.84
38780;BME280;29273;49.962;9.768;2022-11-20T01:44:55;99360.28;;;6.05;56.67
38780;BME280;29273;49.962;9.768;2022-11-20T01:47:34;99357.47;;;6.06;56.56
38780;BME280;29273;49.962;9.768;2022-11-20T01:50:11;99348.75;;;6.06;56.54
38780;BME280;29273;49.962;9.768;2022-11-20T01:52:42;99355.03;;;6.05;56.66
38780;BME280;29273;49.962;9.768;2022-11-20T01:55:16;99348.75;;;6.06;56.76
38780;BME280;29273;49.962;9.768;2022-11-20T01:57:42;99349.28;;;5.86;57.04
38780;BME280;29273;49.962;9.768;2022-11-20T02:00:11;99349.31;;;6.01;56.63
38780;BME280;29273;49.962;9.768;2022-11-20T02:02:39;99349.50;;;6.00;56.53
38780;BME280;29273;49.962;9.768;2022-11-20T02:05:23;99358.81;;;6.02;56.58
38780;BME280;29273;49.962;9.768;2022-11-20T02:07:50;99343.75;;;5.96;56.60
38780;BME280;29273;49.962;9.768;2022-11-20T02:10:16;99347.84;;;5.99;56.79
38780;BME280;29273;49.962;9.768;2022-11-20T02:12:41;99353.13;;;5.99;56.65
38780;BME280;29273;49.962;9.768;2022-11-20T02:15:26;99347.84;;;5.99;56.56
38780;BME280;29273;49.962;9.768;2022-11-20T02:17:51;99349.50;;;6.00;56.31
38780;BME280;29273;49.962;9.768;2022-11-20T02:20:18;99346.69;;;6.01;56.46
38780;BME280;29273;49.962;9.768;2022-11-20T02:22:53;99347.75;;;6.07;56.70
38780;BME280;29273;49.962;9.768;2022-11-20T02:25:20;99345.50;;;6.04;56.37
38780;BME280;29273;49.962;9.768;2022-11-20T02:27:46;99342.06;;;6.03;56.58
38780;BME280;29273;49.962;9.768;2022-11-20T02:30:12;99330.53;;;6.04;56.44
38780;BME280;29273;49.962;9.768;2022-11-20T02:32:39;99332.97;;;6.06;56.46
38780;BME280;29273;49.962;9.768;2022-11-20T02:35:09;99337.69;;;6.10;56.58
38780;BME280;29273;49.962;9.768;2022-11-20T02:37:37;99332.44;;;6.10;56.49
38780;BME280;29273;49.962;9.768;2022-11-20T02:40:04;99343.31;;;6.07;56.38
38780;BME280;29273;49.962;9.768;2022-11-20T02:42:29;99333.81;;;6.06;56.42
38780;BME280;29273;49.962;9.768;2022-11-20T02:44:55;99333.81;;;6.06;56.56
38780;BME280;29273;49.962;9.768;2022-11-20T02:47:20;99341.88;;;6.05;56.42
38780;BME280;29273;49.962;9.768;2022-11-20T02:49:46;99341.03;;;6.04;56.11
38780;BME280;29273;49.962;9.768;2022-11-20T02:52:11;99344.69;;;6.03;56.41
38780;BME280;29273;49.962;9.768;2022-11-20T02:54:37;99332.72;;;6.01;56.69
38780;BME280;29273;49.962;9.768;2022-11-20T02:57:02;99344.06;;;6.01;56.66
38780;BME280;29273;49.962;9.768;2022-11-20T02:59:28;99338.81;;;6.01;56.93
38780;BME280;29273;49.962;9.768;2022-11-20T03:01:53;99331.09;;;6.00;56.72
38780;BME280;29273;49.962;9.768;2022-11-20T03:04:19;99329.63;;;5.97;56.46
38780;BME280;29273;49.962;9.768;2022-11-20T03:06:44;99329.63;;;5.97;56.23
38780;BME280;29273;49.962;9.768;2022-11-20T03:09:09;99332.25;;;5.97;56.30
38780;BME280;29273;49.962;9.768;2022-11-20T03:11:35;99327.00;;;5.97;56.50
38780;BME280;29273;49.962;9.768;2022-11-20T03:14:04;99330.09;;;6.01;56.63
38780;BME280;29273;49.962;9.768;2022-11-20T03:16:31;99333.91;;;5.98;56.79
38780;BME280;29273;49.962;9.768;2022-11-20T03:18:58;99328.66;;;5.98;56.79
38780;BME280;29273;49.962;9.768;2022-11-20T03:21:23;99326.03;;;5.98;56.58
38780;BME280;29273;49.962;9.768;2022-11-20T03:23:49;99326.81;;;5.99;56.70
38780;BME280;29273;49.962;9.768;2022-11-20T03:26:17;99318.75;;;6.00;56.60
38780;BME280;29273;49.962;9.768;2022-11-20T03:28:55;99318.41;;;6.03;56.67
38780;BME280;29273;49.962;9.768;2022-11-20T03:31:28;99310.69;;;6.02;56.58
38780;BME280;29273;49.962;9.768;2022-11-20T03:33:56;99332.53;;;6.02;56.60
38780;BME280;29273;49.962;9.768;2022-11-20T03:36:22;99323.03;;;6.01;56.66
38780;BME280;29273;49.962;9.768;2022-11-20T03:38:48;99316.13;;;6.00;56.78
38780;BME280;29273;49.962;9.768;2022-11-20T03:41:37;99323.66;;;6.03;56.61
38780;BME280;29273;49.962;9.768;2022-11-20T03:44:03;99318.59;;;6.02;56.73
38780;BME280;29273;49.962;9.768;2022-11-20T03:46:29;99316.13;;;6.00;56.62
38780;BME280;29273;49.962;9.768;2022-11-20T03:48:55;99304.41;;;6.03;56.81
38780;BME280;29273;49.962;9.768;2022-11-20T03:51:24;99305.88;;;6.05;56.89
38780;BME280;29273;49.962;9.768;2022-11-20T03:53:52;99307.53;;;6.06;56.86
38780;BME280;29273;49.962;9.768;2022-11-20T03:56:20;99304.88;;;6.06;57.05
38780;BME280;29273;49.962;9.768;2022-11-20T03:58:45;99305.06;;;6.05;56.98
38780;BME280;29273;49.962;9.768;2022-11-20T04:01:13;99296.81;;;6.08;56.86
38780;BME280;29273;49.962;9.768;2022-11-20T04:03:40;99289.75;;;6.08;56.97
38780;BME280;29273;49.962;9.768;2022-11-20T04:06:09;99281.31;;;6.13;56.86
38780;BME280;29273;49.962;9.768;2022-11-20T04:08:35;99284.47;;;6.08;56.79
38780;BME280;29273;49.962;9.768;2022-11-20T04:11:13;99282.09;;;6.14;56.81
38780;BME280;29273;49.962;9.768;2022-11-20T04:13:40;99290.38;;;6.10;56.93
38780;BME280;29273;49.962;9.768;2022-11-20T04:16:06;99290.38;;;6.10;56.66
38780;BME280;29273;49.962;9.768;2022-11-20T04:18:32;99297.09;;;6.13;56.87
38780;BME280;29273;49.962;9.768;2022-11-20T04:20:59;99290.97;;;6.13;57.12
38780;BME280;29273;49.962;9.768;2022-11-20T04:23:25;99285.53;;;6.14;57.05
38780;BME280;29273;49.962;9.768;2022-11-20T04:25:51;99284.75;;;6.14;57.02
38780;BME280;29273;49.962;9.768;2022-11-20T04:28:16;99280.28;;;6.14;56.98
38780;BME280;29273;49.962;9.768;2022-11-20T04:30:42;99289.81;;;6.15;56.90
38780;BME280;29273;49.962;9.768;2022-11-20T04:33:08;99295.88;;;6.16;56.95
38780;BME280;29273;49.962;9.768;2022-11-20T04:35:34;99291.63;;;6.15;56.73
38780;BME280;29273;49.962;9.768;2022-11-20T04:38:00;99289.81;;;6.15;56.65
38780;BME280;29273;49.962;9.768;2022-11-20T04:40:25;99280.28;;;6.14;56.88
38780;BME280;29273;49.962;9.768;2022-11-20T04:42:51;99281.94;;;6.15;56.98
38780;BME280;29273;49.962;9.768;2022-11-20T04:45:16;99288.19;;;6.14;56.74
38780;BME280;29273;49.962;9.768;2022-11-20T04:47:42;99291.81;;;6.13;56.80
38780;BME280;29273;49.962;9.768;2022-11-20T04:50:08;99296.25;;;6.13;56.76
38780;BME280;29273;49.962;9.768;2022-11-20T04:52:33;99277.22;;;6.10;56.71
38780;BME280;29273;49.962;9.768;2022-11-20T04:55:00;99283.28;;;6.11;56.93
38780;BME280;29273;49.962;9.768;2022-11-20T04:57:25;99293.97;;;6.09;56.72
38780;BME280;29273;49.962;9.768;2022-11-20T04:59:51;99286.09;;;6.09;56.83
38780;BME280;29273;49.962;9.768;2022-11-20T05:02:16;99285.28;;;6.09;56.84
38780;BME280;29273;49.962;9.768;2022-11-20T05:04:42;99282.84;;;6.07;56.71
38780;BME280;29273;49.962;9.768;2022-11-20T05:07:07;99274.16;;;6.07;56.77
38780;BME280;29273;49.962;9.768;2022-11-20T05:09:33;99274.34;;;6.05;56.83
38780;BME280;29273;49.962;9.768;2022-11-20T05:11:59;99285.03;;;6.04;56.79
38780;BME280;29273;49.962;9.768;2022-11-20T05:14:24;99293.09;;;6.02;56.93
38780;BME280;29273;49.962;9.768;2022-11-20T05:16:49;99285.22;;;6.02;56.97
38780;BME280;29273;49.962;9.768;2022-11-20T05:19:15;99288.66;;;6.03;57.14
38780;BME280;29273;49.962;9.768;2022-11-20T05:21:40;99286.22;;;6.01;56.96
38780;BME280;29273;49.962;9.768;2022-11-20T05:24:06;99273.91;;;6.02;56.93
38780;BME280;29273;49.962;9.768;2022-11-20T05:26:32;99271.44;;;6.00;56.93
38780;BME280;29273;49.962;9.768;2022-11-20T05:28:57;99272.44;;;5.99;57.01
38780;BME280;29273;49.962;9.768;2022-11-20T05:31:24;99281.78;;;6.02;57.15
38780;BME280;29273;49.962;9.768;2022-11-20T05:33:50;99284.59;;;6.00;57.15
38780;BME280;29273;49.962;9.768;2022-11-20T05:36:15;99280.97;;;6.01;57.09
38780;BME280;29273;49.962;9.768;2022-11-20T05:38:41;99279.94;;;6.02;56.78
38780;BME280;29273;49.962;9.768;2022-11-20T05:41:11;99272.50;;;6.06;56.78
38780;BME280;29273;49.962;9.768;2022-11-20T05:43:38;99265.81;;;6.03;56.91
38780;BME280;29273;49.962;9.768;2022-11-20T05:46:06;99264.00;;;6.04;56.93
38780;BME280;29273;49.962;9.768;2022-11-20T05:48:32;99273.91;;;6.02;57.05
38780;BME280;29273;49.962;9.768;2022-11-20T05:50:59;99275.31;;;6.04;57.03
38780;BME280;29273;49.962;9.768;2022-11-20T05:53:25;99268.28;;;6.05;56.83
38780;BME280;29273;49.962;9.768;2022-11-20T05:56:01;99270.53;;;6.08;56.49
38780;BME280;29273;49.962;9.768;2022-11-20T05:58:27;99264.00;;;6.04;56.91
38780;BME280;29273;49.962;9.768;2022-11-20T06:00:53;99261.38;;;6.04;56.85
38780;BME280;29273;49.962;9.768;2022-11-20T06:03:19;99257.94;;;6.03;56.74
38780;BME280;29273;49.962;9.768;2022-11-20T06:05:44;99261.38;;;6.04;56.99
38780;BME280;29273;49.962;9.768;2022-11-20T06:08:09;99259.72;;;6.03;56.93
38780;BME280;29273;49.962;9.768;2022-11-20T06:10:35;99257.94;;;6.03;56.94
38780;BME280;29273;49.962;9.768;2022-11-20T06:13:00;99270.06;;;6.04;56.83
38780;BME280;29273;49.962;9.768;2022-11-20T06:15:26;99267.63;;;6.03;56.88
38780;BME280;29273;49.962;9.768;2022-11-20T06:17:52;99270.06;;;6.04;56.80
38780;BME280;29273;49.962;9.768;2022-11-20T06:20:19;99283.38;;;6.03;56.57
38780;BME280;29273;49.962;9.768;2022-11-20T06:22:45;99271.09;;;6.03;56.83
38780;BME280;29273;49.962;9.768;2022-11-20T06:25:11;99262.56;;;6.01;56.72
38780;BME280;29273;49.962;9.768;2022-11-20T06:27:36;99275.72;;;6.01;56.76
38780;BME280;29273;49.962;9.768;2022-11-20T06:30:02;99275.72;;;6.01;56.87
38780;BME280;29273;49.962;9.768;2022-11-20T06:32:28;99278.34;;;6.01;56.95
38780;BME280;29273;49.962;9.768;2022-11-20T06:34:53;99280.97;;;6.01;57.03
38780;BME280;29273;49.962;9.768;2022-11-20T06:37:19;99283.59;;;6.01;56.92
38780;BME280;29273;49.962;9.768;2022-11-20T06:39:44;99284.59;;;6.00;56.95
38780;BME280;29273;49.962;9.768;2022-11-20T06:42:10;99283.59;;;6.01;56.99
38780;BME280;29273;49.962;9.768;2022-11-20T06:44:35;99273.09;;;6.01;56.94
38780;BME280;29273;49.962;9.768;2022-11-20T06:47:00;99264.56;;;5.99;56.91
38780;BME280;29273;49.962;9.768;2022-11-20T06:49:26;99269.81;;;5.99;56.86
38780;BME280;29273;49.962;9.768;2022-11-20T06:51:51;99266.56;;;5.97;56.74
38780;BME280;29273;49.962;9.768;2022-11-20T06:54:17;99277.06;;;5.97;56.88
38780;BME280;29273;49.962;9.768;2022-11-20T06:56:46;99270.47;;;6.01;57.08
38780;BME280;29273;49.962;9.768;2022-11-20T06:59:13;99269.19;;;5.97;56.98
38780;BME280;29273;49.962;9.768;2022-11-20T07:01:38;99277.06;;;5.97;56.82
38780;BME280;29273;49.962;9.768;2022-11-20T07:04:04;99271.00;;;5.97;57.00
38780;BME280;29273;49.962;9.768;2022-11-20T07:06:29;99276.25;;;5.97;56.94
38780;BME280;29273;49.962;9.768;2022-11-20T07:08:55;99278.06;;;5.96;57.07
38780;BME280;29273;49.962;9.768;2022-11-20T07:11:20;99275.44;;;5.96;57.19
38780;BME280;29273;49.962;9.768;2022-11-20T07:13:46;99274.44;;;5.97;57.26
38780;BME280;29273;49.962;9.768;2022-11-20T07:16:11;99274.25;;;5.99;56.90
38780;BME280;29273;49.962;9.768;2022-11-20T07:18:37;99277.69;;;5.99;57.05
38780;BME280;29273;49.962;9.768;2022-11-20T07:21:04;99283.59;;;6.01;57.09
38780;BME280;29273;49.962;9.768;2022-11-20T07:23:30;99275.72;;;6.01;57.10
38780;BME280;29273;49.962;9.768;2022-11-20T07:25:55;99273.09;;;6.01;57.18
38780;BME280;29273;49.962;9.768;2022-11-20T07:28:21;99269.44;;;6.02;57.33
38780;BME280;29273;49.962;9.768;2022-11-20T07:30:51;99268.09;;;6.06;57.12
38780;BME280;29273;49.962;9.768;2022-11-20T07:33:16;99260.56;;;6.03;56.90
38780;BME280;29273;49.962;9.768;2022-11-20T07:35:42;99262.19;;;6.04;57.22
38780;BME280;29273;49.962;9.768;2022-11-20T07:38:07;99270.06;;;6.04;57.15
38780;BME280;29273;49.962;9.768;2022-11-20T07:40:33;99276.97;;;6.05;57.22
38780;BME280;29273;49.962;9.768;2022-11-20T07:42:58;99275.13;;;6.06;57.23
38780;BME280;29273;49.962;9.768;2022-11-20T07:45:25;99277.59;;;6.07;57.15
38780;BME280;29273;49.962;9.768;2022-11-20T07:47:50;99273.97;;;6.08;57.16
38780;BME280;29273;49.962;9.768;2022-11-20T07:50:17;99274.59;;;6.10;57.09
38780;BME280;29273;49.962;9.768;2022-11-20T07:52:42;99279.66;;;6.12;56.94
38780;BME280;29273;49.962;9.768;2022-11-20T07:55:09;99282.28;;;6.12;56.89
38780;BME280;29273;49.962;9.768;2022-11-20T07:57:35;99273.78;;;6.10;57.04
38780;BME280;29273;49.962;9.768;2022-11-20T08:00:00;99278.19;;;6.09;57.18
38780;BME280;29273;49.962;9.768;2022-11-20T08:02:26;99275.78;;;6.08;57.13
38780;BME280;29273;49.962;9.768;2022-11-20T08:04:52;99283.69;;;6.08;57.31
38780;BME280;29273;49.962;9.768;2022-11-20T08:07:17;99281.84;;;6.08;57.44
38780;BME280;29273;49.962;9.768;2022-11-20T08:09:43;99285.28;;;6.09;57.26
38780;BME280;29273;49.962;9.768;2022-11-20T08:12:19;99285.34;;;6.16;57.25
38780;BME280;29273;49.962;9.768;2022-11-20T08:15:04;99290.97;;;6.13;57.33
38780;BME280;29273;49.962;9.768;2022-11-20T08:17:30;99284.91;;;6.12;57.14
38780;BME280;29273;49.962;9.768;2022-11-20T08:19:56;99292.00;;;6.11;57.17
38780;BME280;29273;49.962;9.768;2022-11-20T08:22:21;99290.19;;;6.12;57.07
38780;BME280;29273;49.962;9.768;2022-11-20T08:24:47;99296.25;;;6.13;57.13
38780;BME280;29273;49.962;9.768;2022-11-20T08:27:13;99298.06;;;6.12;57.08
38780;BME280;29273;49.962;9.768;2022-11-20T08:29:38;99299.88;;;6.11;57.21
38780;BME280;29273;49.962;9.768;2022-11-20T08:32:04;99290.38;;;6.10;57.10
38780;BME280;29273;49.962;9.768;2022-11-20T08:34:29;99270.13;;;6.11;57.23
38780;BME280;29273;49.962;9.768;2022-11-20T08:36:55;99271.16;;;6.10;57.30
38780;BME280;29273;49.962;9.768;2022-11-20T08:39:20;99282.66;;;6.09;57.51
38780;BME280;29273;49.962;9.768;2022-11-20T08:41:46;99290.38;;;6.10;57.63
38780;BME280;29273;49.962;9.768;2022-11-20T08:44:11;99283.28;;;6.11;57.57
38780;BME280;29273;49.962;9.768;2022-11-20T08:46:38;99293.44;;;6.14;57.63
38780;BME280;29273;49.962;9.768;2022-11-20T08:49:08;99286.38;;;6.15;57.69
38780;BME280;29273;49.962;9.768;2022-11-20T08:51:34;99280.28;;;6.14;57.82
38780;BME280;29273;49.962;9.768;2022-11-20T08:54:00;99291.47;;;6.16;57.68
38780;BME280;29273;49.962;9.768;2022-11-20T08:56:26;99288.63;;;6.18;57.79
38780;BME280;29273;49.962;9.768;2022-11-20T08:58:51;99284.19;;;6.18;57.48
38780;BME280;29273;49.962;9.768;2022-11-20T09:01:18;99277.72;;;6.21;57.55
38780;BME280;29273;49.962;9.768;2022-11-20T09:03:44;99280.34;;;6.21;57.70
38780;BME280;29273;49.962;9.768;2022-11-20T09:06:09;99284.44;;;6.23;57.71
38780;BME280;29273;49.962;9.768;2022-11-20T09:08:35;99293.94;;;6.24;57.60
38780;BME280;29273;49.962;9.768;2022-11-20T09:11:01;99289.34;;;6.26;57.49
38780;BME280;29273;49.962;9.768;2022-11-20T09:13:28;99274.38;;;6.27;57.57
38780;BME280;29273;49.962;9.768;2022-11-20T09:15:59;99289.97;;;6.28;57.58
38780;BME280;29273;49.962;9.768;2022-11-20T09:18:26;99294.22;;;6.29;57.52
38780;BME280;29273;49.962;9.768;2022-11-20T09:20:56;99295.47;;;6.34;57.50
38780;BME280;29273;49.962;9.768;2022-11-20T09:23:22;99296.47;;;6.33;57.57
38780;BME280;29273;49.962;9.768;2022-11-20T09:25:48;99295.66;;;6.32;57.44
38780;BME280;29273;49.962;9.768;2022-11-20T09:28:13;99299.91;;;6.33;57.49
38780;BME280;29273;49.962;9.768;2022-11-20T09:30:39;99293.66;;;6.34;57.64
38780;BME280;29273;49.962;9.768;2022-11-20T09:33:05;99306.59;;;6.36;57.82
38780;BME280;29273;49.962;9.768;2022-11-20T09:35:32;99300.97;;;6.39;57.75
38780;BME280;29273;49.962;9.768;2022-11-20T09:37:57;99297.38;;;6.40;57.66
38780;BME280;29273;49.962;9.768;2022-11-20T09:40:28;99305.69;;;6.43;57.82
38780;BME280;29273;49.962;9.768;2022-11-20T09:43:15;99306.69;;;6.42;57.76
38780;BME280;29273;49.962;9.768;2022-11-20T09:45:56;99306.56;;;6.51;57.80
38780;BME280;29273;49.962;9.768;2022-11-20T09:54:17;99303.19;;;6.57;57.83
38780;BME280;29273;49.962;9.768;2022-11-20T09:56:48;99308.06;;;6.60;57.90
38780;BME280;29273;49.962;9.768;2022-11-20T09:59:58;99302.25;;;6.43;58.38
38780;BME280;29273;49.962;9.768;2022-11-20T10:04:54;99291.34;;;6.67;58.09
38780;BME280;29273;49.962;9.768;2022-11-20T10:07:30;99294.44;;;6.71;57.96
38780;BME280;29273;49.962;9.768;2022-11-20T10:10:00;99292.41;;;6.73;57.94
38780;BME280;29273;49.962;9.768;2022-11-20T10:15:46;99281.16;;;6.86;58.03
38780;BME280;29273;49.962;9.768;2022-11-20T10:26:29;99278.06;;;7.04;57.89
38780;BME280;29273;49.962;9.768;2022-11-20T10:32:14;99274.06;;;7.08;57.84
38780;BME280;29273;49.962;9.768;2022-11-20T10:34:44;99274.47;;;7.12;57.80
38780;BME280;29273;49.962;9.768;2022-11-20T10:37:18;99277.72;;;7.14;57.81
38780;BME280;29273;49.962;9.768;2022-11-20T10:42:28;99271.72;;;7.20;57.94
38780;BME280;29273;49.962;9.768;2022-11-20T10:45:09;99271.50;;;7.21;58.09
38780;BME280;29273;49.962;9.768;2022-11-20T10:47:36;99262.16;;;7.19;58.13
38780;BME280;29273;49.962;9.768;2022-11-20T10:50:04;99262.22;;;7.26;58.26
38780;BME280;29273;49.962;9.768;2022-11-20T10:55:32;99268.13;;;7.34;58.22
38780;BME280;29273;49.962;9.768;2022-11-20T10:58:10;99260.69;;;7.38;57.96
38780;BME280;29273;49.962;9.768;2022-11-20T11:00:38;99254.97;;;7.34;57.93
38780;BME280;29273;49.962;9.768;2022-11-20T11:03:26;99255.41;;;7.38;57.93
38780;BME280;29273;49.962;9.768;2022-11-20T11:06:17;99255.41;;;7.38;57.78
38780;BME280;29273;49.962;9.768;2022-11-20T11:08:47;99244.88;;;7.38;57.88
38780;BME280;29273;49.962;9.768;2022-11-20T11:11:24;99250.56;;;7.41;58.02
38780;BME280;29273;49.962;9.768;2022-11-20T11:13:51;99246.88;;;7.36;57.66
38780;BME280;29273;49.962;9.768;2022-11-20T11:16:23;99248.91;;;7.40;57.81
38780;BME280;29273;49.962;9.768;2022-11-20T11:18:50;99242.44;;;7.36;57.99
38780;BME280;29273;49.962;9.768;2022-11-20T11:21:25;99247.09;;;7.41;58.04
38780;BME280;29273;49.962;9.768;2022-11-20T11:24:00;99240.03;;;7.41;57.84
38780;BME280;29273;49.962;9.768;2022-11-20T11:26:26;99237.53;;;7.33;57.61
38780;BME280;29273;49.962;9.768;2022-11-20T11:29:03;99240.59;;;7.37;58.07
38780;BME280;29273;49.962;9.768;2022-11-20T11:34:23;99238.34;;;7.34;58.00
38780;BME280;29273;49.962;9.768;2022-11-20T11:36:54;99246.28;;;7.40;58.12
38780;BME280;29273;49.962;9.768;2022-11-20T11:39:21;99234.53;;;7.36;58.38
38780;BME280;29273;49.962;9.768;2022-11-20T11:41:47;99229.88;;;7.38;58.34
38780;BME280;29273;49.962;9.768;2022-11-20T11:44:17;99229.47;;;7.41;58.35
38780;BME280;29273;49.962;9.768;2022-11-20T11:47:04;99219.56;;;7.44;58.70
38780;BME280;29273;49.962;9.768;2022-11-20T11:49:30;99213.09;;;7.46;58.53
38780;BME280;29273;49.962;9.768;2022-11-20T11:54:38;99220.41;;;7.57;58.85
38780;BME280;29273;49.962;9.768;2022-11-20T11:57:29;99221.25;;;7.58;58.69
38780;BME280;29273;49.962;9.768;2022-11-20T12:00:28;99208.88;;;7.58;58.82
38780;BME280;29273;49.962;9.768;2022-11-20T12:03:05;99208.91;;;7.65;58.67
38780;BME280;29273;49.962;9.768;2022-11-20T12:05:47;99212.16;;;7.67;58.73
38780;BME280;29273;49.962;9.768;2022-11-20T12:08:24;99213.59;;;7.70;58.87
38780;BME280;29273;49.962;9.768;2022-11-20T12:10:58;99220.28;;;7.72;58.64
38780;BME280;29273;49.962;9.768;2022-11-20T12:16:31;99216.44;;;7.68;58.84
38780;BME280;29273;49.962;9.768;2022-11-20T12:19:00;99202.63;;;7.66;58.79
38780;BME280;29273;49.962;9.768;2022-11-20T12:24:32;99199.38;;;7.71;58.66
38780;BME280;29273;49.962;9.768;2022-11-20T12:30:08;99199.00;;;7.74;59.00
38780;BME280;29273;49.962;9.768;2022-11-20T12:52:56;99193.75;;;7.87;58.66
38780;BME280;29273;49.962;9.768;2022-11-20T12:55:47;99200.88;;;7.87;58.86
38780;BME280;29273;49.962;9.768;2022-11-20T12:58:20;99197.78;;;7.70;59.15
38780;BME280;29273;49.962;9.768;2022-11-20T13:00:58;99189.94;;;7.90;58.87
38780;BME280;29273;49.962;9.768;2022-11-20T13:03:46;99195.81;;;7.92;58.95
38780;BME280;29273;49.962;9.768;2022-11-20T13:06:17;99194.41;;;7.89;59.10
38780;BME280;29273;49.962;9.768;2022-11-20T13:08:53;99198.03;;;7.95;58.98
38780;BME280;29273;49.962;9.768;2022-11-20T13:11:35;99197.25;;;7.94;59.22
38780;BME280;29273;49.962;9.768;2022-11-20T13:19:10;99180.59;;;8.01;59.07
38780;BME280;29273;49.962;9.768;2022-11-20T13:21:38;99180.59;;;8.01;59.18
38780;BME280;29273;49.962;9.768;2022-11-20T13:24:20;99186.53;;;8.09;59.34
38780;BME280;29273;49.962;9.768;2022-11-20T13:29:42;99181.84;;;8.11;59.37
38780;BME280;29273;49.962;9.768;2022-11-20T13:32:18;99180.63;;;8.14;58.97
38780;BME280;29273;49.962;9.768;2022-11-20T13:37:31;99168.28;;;8.14;58.77
38780;BME280;29273;49.962;9.768;2022-11-20T13:42:39;99157.09;;;8.12;59.21
38780;BME280;29273;49.962;9.768;2022-11-20T13:45:26;99158.13;;;8.11;58.97
38780;BME280;29273;49.962;9.768;2022-11-20T13:47:53;99158.31;;;8.10;59.19
38780;BME280;29273;49.962;9.768;2022-11-20T13:50:23;99163.00;;;8.14;59.06
38780;BME280;29273;49.962;9.768;2022-11-20T14:00:55;99157.53;;;8.16;59.32
38780;BME280;29273;49.962;9.768;2022-11-20T14:03:24;99164.81;;;8.14;59.35
38780;BME280;29273;49.962;9.768;2022-11-20T14:06:02;99165.22;;;8.18;59.26
38780;BME280;29273;49.962;9.768;2022-11-20T14:08:40;99165.22;;;8.18;59.13
38780;BME280;29273;49.962;9.768;2022-11-20T14:11:26;99170.28;;;8.19;59.22
38780;BME280;29273;49.962;9.768;2022-11-20T14:14:01;99164.19;;;8.19;59.01
38780;BME280;29273;49.962;9.768;2022-11-20T14:16:30;99159.31;;;8.15;59.14
38780;BME280;29273;49.962;9.768;2022-11-20T14:18:57;99159.53;;;8.14;59.27
38780;BME280;29273;49.962;9.768;2022-11-20T14:21:29;99162.56;;;8.18;59.12
38780;BME280;29273;49.962;9.768;2022-11-20T14:24:05;99157.53;;;8.16;59.13
38780;BME280;29273;49.962;9.768;2022-11-20T14:26:31;99157.91;;;8.13;59.35
38780;BME280;29273;49.962;9.768;2022-11-20T14:28:58;99146.34;;;8.14;59.41
38780;BME280;29273;49.962;9.768;2022-11-20T14:31:25;99146.13;;;8.15;59.58
38780;BME280;29273;49.962;9.768;2022-11-20T14:33:52;99147.97;;;8.15;59.57
38780;BME280;29273;49.962;9.768;2022-11-20T14:36:22;99153.84;;;8.17;59.39
38780;BME280;29273;49.962;9.768;2022-11-20T14:38:49;99148.19;;;8.13;59.68
38780;BME280;29273;49.962;9.768;2022-11-20T14:41:23;99145.75;;;8.19;59.37
38780;BME280;29273;49.962;9.768;2022-11-20T14:43:59;99145.94;;;8.17;59.42